Johnny James — WYT8450 — position and weather

sailwx.info

Track history (hours):
 
Tides and Currents Weather Stations Pressure Air Temp Water Temp Dewpoint Dewpoint Depression Visibility Wind Speed Wind Dir Waves Ship Positions

Johnny James

Owner: CALLAIS & SONS INC, CUT OFF, LA. More information available from US FCC via Universal Licensing System and Coast Guard Vessel Documentation Center.

Last reported at 2016-Feb-11 19:31 UTC. Time now 2016-Feb-11 23:26 UTC.
Position N 29°46' W 095°05'.

Length 20 m.

Type: Towing. MMSI: 367005220.

Date/timePositionNaut miles runAvg speedWind from/ knotsBaromVisibWave heightAir tempDewpointWater temp
2016-Feb-11 19:31N 29°46' W 095°05'4 2.0
2016-Feb-11 17:33N 29°44' W 095°09'1 0.0
2016-Feb-11 03:33N 29°44' W 095°09'4 3.9
2016-Feb-11 02:30N 29°46' W 095°05'1 0.7
2016-Feb-11 01:31N 29°47' W 095°04'0 0.2
2016-Feb-11 00:33N 29°47' W 095°04'0 0.0
2016-Feb-10 23:32N 29°47' W 095°04'0 0.0
2016-Feb-10 22:33N 29°47' W 095°04'0 0.0
2016-Feb-10 21:33N 29°47' W 095°04'0 0.0
2016-Feb-10 20:33N 29°47' W 095°04'0 0.0
2016-Feb-10 19:33N 29°47' W 095°04'2 0.4
2016-Feb-10 14:15N 29°46' W 095°06'1 0.9
2016-Feb-10 13:29N 29°46' W 095°06'2 2.3
2016-Feb-10 12:33N 29°47' W 095°04'2 0.7
2016-Feb-10 10:30N 29°46' W 095°05'5 5.0
2016-Feb-10 09:33N 29°42' W 095°01'2 0.1
2016-Feb-09 15:32N 29°43' W 095°03'0 0.0
2016-Feb-09 12:33N 29°43' W 095°03'0 0.0
2016-Feb-09 11:22N 29°43' W 095°03'0 0.1
2016-Feb-09 10:33N 29°43' W 095°03'0 0.0
2016-Feb-09 09:33N 29°43' W 095°03'0 0.0
2016-Feb-09 08:33N 29°43' W 095°03'0 0.0
2016-Feb-09 07:33N 29°43' W 095°03'0 0.0
2016-Feb-09 06:32N 29°43' W 095°03'0 0.0
2016-Feb-09 05:33N 29°43' W 095°03'0 0.0
2016-Feb-09 04:33N 29°43' W 095°03'0 0.0
2016-Feb-09 03:33N 29°43' W 095°03'2 1.8
2016-Feb-09 02:33N 29°43' W 095°01'  
2016-Feb-06 10:33N 29°44' W 095°03'0 0.0
2016-Feb-06 09:33N 29°44' W 095°03'0 0.0
2016-Feb-06 08:33N 29°44' W 095°03'0 0.0
2016-Feb-06 07:33N 29°44' W 095°03'0 0.0
2016-Feb-06 06:33N 29°44' W 095°03'0 0.0
2016-Feb-06 05:33N 29°44' W 095°03'0 0.0
2016-Feb-06 04:33N 29°44' W 095°03'0 0.0
2016-Feb-06 03:33N 29°44' W 095°03'0 0.0
2016-Feb-06 02:33N 29°44' W 095°03'0 0.0
2016-Feb-06 01:33N 29°44' W 095°03'0 0.0
2016-Feb-06 00:33N 29°44' W 095°03'0 0.0
2016-Feb-05 23:33N 29°44' W 095°03'0 0.0
2016-Feb-05 22:33N 29°44' W 095°03'0 0.0
2016-Feb-05 21:32N 29°44' W 095°03'0 0.0
2016-Feb-05 20:33N 29°44' W 095°03'0 0.0
2016-Feb-05 19:33N 29°44' W 095°03'0 0.0
2016-Feb-05 18:33N 29°44' W 095°03'0 0.0
2016-Feb-05 17:33N 29°44' W 095°03'0 0.0
2016-Feb-05 16:33N 29°44' W 095°03'0 0.0
2016-Feb-05 15:33N 29°44' W 095°03'0 0.0
2016-Feb-05 14:33N 29°44' W 095°03'0 0.0
2016-Feb-05 13:33N 29°44' W 095°03'0 0.0
2016-Feb-05 12:33N 29°44' W 095°03'0 0.0
2016-Feb-05 11:33N 29°44' W 095°03'0 0.0
2016-Feb-05 10:33N 29°44' W 095°03'0 0.0
2016-Feb-05 09:33N 29°44' W 095°03'0 0.0
2016-Feb-05 08:28N 29°44' W 095°03'0 0.4
2016-Feb-05 07:33N 29°44' W 095°03'2 1.9
2016-Feb-05 06:31N 29°46' W 095°05'1 1.5
2016-Feb-05 05:33N 29°47' W 095°04'0 0.0
2016-Feb-05 04:33N 29°47' W 095°04'0 0.0
2016-Feb-05 03:33N 29°47' W 095°04'0 0.0
2016-Feb-05 02:33N 29°47' W 095°04'0 0.0
2016-Feb-05 00:33N 29°47' W 095°04'0 0.0
2016-Feb-04 23:33N 29°47' W 095°04'0 0.0
2016-Feb-04 22:33N 29°47' W 095°04'0 0.0
2016-Feb-04 21:33N 29°47' W 095°04'0 0.0
2016-Feb-04 20:33N 29°47' W 095°04'0 0.0
2016-Feb-04 19:33N 29°47' W 095°04'0 0.1
2016-Feb-04 18:33N 29°47' W 095°04'0 0.0
2016-Feb-04 17:29N 29°47' W 095°04'0 0.0
2016-Feb-04 16:18N 29°47' W 095°04'0 0.0
2016-Feb-04 15:33N 29°47' W 095°04'0 0.1
2016-Feb-04 14:32N 29°47' W 095°04'0 0.0
2016-Feb-04 13:33N 29°47' W 095°04'0 0.0
2016-Feb-04 12:33N 29°47' W 095°04'0 0.0
2016-Feb-04 11:33N 29°47' W 095°04'0 0.0
2016-Feb-04 10:33N 29°47' W 095°04'0 0.0
2016-Feb-04 09:33N 29°47' W 095°04'0 0.0
2016-Feb-04 07:30N 29°47' W 095°04'0 0.0
2016-Feb-04 06:29N 29°47' W 095°04'0 0.1
2016-Feb-04 03:21N 29°47' W 095°04'0 0.3
2016-Feb-04 02:33N 29°47' W 095°04'0 0.0
2016-Feb-04 01:33N 29°47' W 095°04'0 0.0
2016-Feb-04 00:33N 29°47' W 095°04'0 0.0
2016-Feb-03 23:33N 29°47' W 095°04'0 0.0
2016-Feb-03 22:13N 29°47' W 095°04'0 0.0
2016-Feb-03 21:32N 29°47' W 095°04'0 0.0
2016-Feb-03 18:04N 29°47' W 095°04'0 0.0
2016-Feb-03 14:33N 29°47' W 095°04'0 0.2
2016-Feb-03 13:11N 29°47' W 095°04'0 0.1
2016-Feb-03 12:33N 29°47' W 095°04'0 0.0
2016-Feb-03 11:33N 29°47' W 095°04'0 0.1
2016-Feb-03 10:33N 29°47' W 095°04'0 0.1
2016-Feb-03 09:27N 29°47' W 095°04'0 0.3
2016-Feb-03 08:08N 29°47' W 095°04'0 0.5
2016-Feb-03 07:33N 29°47' W 095°04'0 0.0
2016-Feb-03 06:33N 29°47' W 095°04'0 0.0
2016-Feb-03 05:32N 29°47' W 095°04'0 0.2
2016-Feb-03 04:33N 29°47' W 095°04'0 0.0
2016-Feb-03 03:33N 29°47' W 095°04'0 0.2
2016-Feb-03 02:31N 29°47' W 095°04'0 0.0
2016-Feb-03 01:33N 29°47' W 095°04'0 0.0
2016-Feb-03 00:29N 29°47' W 095°04'0 0.2
2016-Feb-02 23:31N 29°47' W 095°04'0 0.2
2016-Feb-02 22:33N 29°47' W 095°04'0 0.0
2016-Feb-02 21:33N 29°47' W 095°04'0 0.0
2016-Feb-02 20:33N 29°47' W 095°04'0 0.0
2016-Feb-02 19:33N 29°47' W 095°04'0 0.0
2016-Feb-02 18:33N 29°47' W 095°04'0 0.0
2016-Feb-02 17:33N 29°47' W 095°04'0 0.0
2016-Feb-02 16:33N 29°47' W 095°04'0 0.0
2016-Feb-02 15:33N 29°47' W 095°04'0 0.0
2016-Feb-02 14:33N 29°47' W 095°04'0 0.0
2016-Feb-02 13:33N 29°47' W 095°04'0 0.0
2016-Feb-02 12:33N 29°47' W 095°04'0 0.0
2016-Feb-02 11:33N 29°47' W 095°04'0 0.0
2016-Feb-02 10:33N 29°47' W 095°04'0 0.0
2016-Feb-02 09:32N 29°47' W 095°04'0 0.0
2016-Feb-02 08:33N 29°47' W 095°04'0 0.0
2016-Feb-02 07:33N 29°47' W 095°04'0 0.0
2016-Feb-02 06:33N 29°47' W 095°04'0 0.0
2016-Feb-02 05:33N 29°47' W 095°04'0 0.0
2016-Feb-02 04:33N 29°47' W 095°04'0 0.0
2016-Feb-02 03:33N 29°47' W 095°04'0 0.0
2016-Feb-02 02:33N 29°47' W 095°04'0 0.0
2016-Feb-02 01:33N 29°47' W 095°04'0 0.0
2016-Feb-02 00:33N 29°47' W 095°04'0 0.0
2016-Feb-01 23:32N 29°47' W 095°04'0 0.0
2016-Feb-01 22:33N 29°47' W 095°04'0 0.0
2016-Feb-01 21:33N 29°47' W 095°04'0 0.0
2016-Feb-01 20:33N 29°47' W 095°04'0 0.0
2016-Feb-01 19:33N 29°47' W 095°04'  
Track history (hours):
 
Tides and Currents Weather Stations Pressure Air Temp Water Temp Dewpoint Dewpoint Depression Visibility Wind Speed Wind Dir Waves Ship Positions

Johnny James

Owner: CALLAIS & SONS INC, CUT OFF, LA. More information available from US FCC via Universal Licensing System and Coast Guard Vessel Documentation Center.

Last reported at 2016-Feb-11 19:31 UTC. Time now 2016-Feb-11 23:26 UTC.
Position N 29°46' W 095°05'.

Length 20 m.

Type: Towing. MMSI: 367005220.

Date/timePositionNaut miles runAvg speedWind from/ knotsBaromVisibWave heightAir tempDewpointWater temp
2016-Feb-11 19:31N 29°46' W 095°05'4 2.0
2016-Feb-11 17:33N 29°44' W 095°09'1 0.0
2016-Feb-11 03:33N 29°44' W 095°09'4 3.9
2016-Feb-11 02:30N 29°46' W 095°05'1 0.7
2016-Feb-11 01:31N 29°47' W 095°04'0 0.2
2016-Feb-11 00:33N 29°47' W 095°04'0 0.0
2016-Feb-10 23:32N 29°47' W 095°04'0 0.0
2016-Feb-10 22:33N 29°47' W 095°04'0 0.0
2016-Feb-10 21:33N 29°47' W 095°04'0 0.0
2016-Feb-10 20:33N 29°47' W 095°04'0 0.0
2016-Feb-10 19:33N 29°47' W 095°04'2 0.4
2016-Feb-10 14:15N 29°46' W 095°06'1 0.9
2016-Feb-10 13:29N 29°46' W 095°06'2 2.3
2016-Feb-10 12:33N 29°47' W 095°04'2 0.7
2016-Feb-10 10:30N 29°46' W 095°05'5 5.0
2016-Feb-10 09:33N 29°42' W 095°01'2 0.1
2016-Feb-09 15:32N 29°43' W 095°03'0 0.0
2016-Feb-09 12:33N 29°43' W 095°03'0 0.0
2016-Feb-09 11:22N 29°43' W 095°03'0 0.1
2016-Feb-09 10:33N 29°43' W 095°03'0 0.0
2016-Feb-09 09:33N 29°43' W 095°03'0 0.0
2016-Feb-09 08:33N 29°43' W 095°03'0 0.0
2016-Feb-09 07:33N 29°43' W 095°03'0 0.0
2016-Feb-09 06:32N 29°43' W 095°03'0 0.0
2016-Feb-09 05:33N 29°43' W 095°03'0 0.0
2016-Feb-09 04:33N 29°43' W 095°03'0 0.0
2016-Feb-09 03:33N 29°43' W 095°03'2 1.8
2016-Feb-09 02:33N 29°43' W 095°01'  
2016-Feb-06 10:33N 29°44' W 095°03'0 0.0
2016-Feb-06 09:33N 29°44' W 095°03'0 0.0
2016-Feb-06 08:33N 29°44' W 095°03'0 0.0
2016-Feb-06 07:33N 29°44' W 095°03'0 0.0
2016-Feb-06 06:33N 29°44' W 095°03'0 0.0
2016-Feb-06 05:33N 29°44' W 095°03'0 0.0
2016-Feb-06 04:33N 29°44' W 095°03'0 0.0
2016-Feb-06 03:33N 29°44' W 095°03'0 0.0
2016-Feb-06 02:33N 29°44' W 095°03'0 0.0
2016-Feb-06 01:33N 29°44' W 095°03'0 0.0
2016-Feb-06 00:33N 29°44' W 095°03'0 0.0
2016-Feb-05 23:33N 29°44' W 095°03'0 0.0
2016-Feb-05 22:33N 29°44' W 095°03'0 0.0
2016-Feb-05 21:32N 29°44' W 095°03'0 0.0
2016-Feb-05 20:33N 29°44' W 095°03'0 0.0
2016-Feb-05 19:33N 29°44' W 095°03'0 0.0
2016-Feb-05 18:33N 29°44' W 095°03'0 0.0
2016-Feb-05 17:33N 29°44' W 095°03'0 0.0
2016-Feb-05 16:33N 29°44' W 095°03'0 0.0
2016-Feb-05 15:33N 29°44' W 095°03'0 0.0
2016-Feb-05 14:33N 29°44' W 095°03'0 0.0
2016-Feb-05 13:33N 29°44' W 095°03'0 0.0
2016-Feb-05 12:33N 29°44' W 095°03'0 0.0
2016-Feb-05 11:33N 29°44' W 095°03'0 0.0
2016-Feb-05 10:33N 29°44' W 095°03'0 0.0
2016-Feb-05 09:33N 29°44' W 095°03'0 0.0
2016-Feb-05 08:28N 29°44' W 095°03'0 0.4
2016-Feb-05 07:33N 29°44' W 095°03'2 1.9
2016-Feb-05 06:31N 29°46' W 095°05'1 1.5
2016-Feb-05 05:33N 29°47' W 095°04'0 0.0
2016-Feb-05 04:33N 29°47' W 095°04'0 0.0
2016-Feb-05 03:33N 29°47' W 095°04'0 0.0
2016-Feb-05 02:33N 29°47' W 095°04'0 0.0
2016-Feb-05 00:33N 29°47' W 095°04'0 0.0
2016-Feb-04 23:33N 29°47' W 095°04'0 0.0
2016-Feb-04 22:33N 29°47' W 095°04'0 0.0
2016-Feb-04 21:33N 29°47' W 095°04'0 0.0
2016-Feb-04 20:33N 29°47' W 095°04'0 0.0
2016-Feb-04 19:33N 29°47' W 095°04'0 0.1
2016-Feb-04 18:33N 29°47' W 095°04'0 0.0
2016-Feb-04 17:29N 29°47' W 095°04'0 0.0
2016-Feb-04 16:18N 29°47' W 095°04'0 0.0
2016-Feb-04 15:33N 29°47' W 095°04'0 0.1
2016-Feb-04 14:32N 29°47' W 095°04'0 0.0
2016-Feb-04 13:33N 29°47' W 095°04'0 0.0
2016-Feb-04 12:33N 29°47' W 095°04'0 0.0
2016-Feb-04 11:33N 29°47' W 095°04'0 0.0
2016-Feb-04 10:33N 29°47' W 095°04'0 0.0
2016-Feb-04 09:33N 29°47' W 095°04'0 0.0
2016-Feb-04 07:30N 29°47' W 095°04'0 0.0
2016-Feb-04 06:29N 29°47' W 095°04'0 0.1
2016-Feb-04 03:21N 29°47' W 095°04'0 0.3
2016-Feb-04 02:33N 29°47' W 095°04'0 0.0
2016-Feb-04 01:33N 29°47' W 095°04'0 0.0
2016-Feb-04 00:33N 29°47' W 095°04'0 0.0
2016-Feb-03 23:33N 29°47' W 095°04'0 0.0
2016-Feb-03 22:13N 29°47' W 095°04'0 0.0
2016-Feb-03 21:32N 29°47' W 095°04'0 0.0
2016-Feb-03 18:04N 29°47' W 095°04'0 0.0
2016-Feb-03 14:33N 29°47' W 095°04'0 0.2
2016-Feb-03 13:11N 29°47' W 095°04'0 0.1
2016-Feb-03 12:33N 29°47' W 095°04'0 0.0
2016-Feb-03 11:33N 29°47' W 095°04'0 0.1
2016-Feb-03 10:33N 29°47' W 095°04'0 0.1
2016-Feb-03 09:27N 29°47' W 095°04'0 0.3
2016-Feb-03 08:08N 29°47' W 095°04'0 0.5
2016-Feb-03 07:33N 29°47' W 095°04'0 0.0
2016-Feb-03 06:33N 29°47' W 095°04'0 0.0
2016-Feb-03 05:32N 29°47' W 095°04'0 0.2
2016-Feb-03 04:33N 29°47' W 095°04'0 0.0
2016-Feb-03 03:33N 29°47' W 095°04'0 0.2
2016-Feb-03 02:31N 29°47' W 095°04'0 0.0
2016-Feb-03 01:33N 29°47' W 095°04'0 0.0
2016-Feb-03 00:29N 29°47' W 095°04'0 0.2
2016-Feb-02 23:31N 29°47' W 095°04'0 0.2
2016-Feb-02 22:33N 29°47' W 095°04'0 0.0
2016-Feb-02 21:33N 29°47' W 095°04'0 0.0
2016-Feb-02 20:33N 29°47' W 095°04'0 0.0
2016-Feb-02 19:33N 29°47' W 095°04'0 0.0
2016-Feb-02 18:33N 29°47' W 095°04'0 0.0
2016-Feb-02 17:33N 29°47' W 095°04'0 0.0
2016-Feb-02 16:33N 29°47' W 095°04'0 0.0
2016-Feb-02 15:33N 29°47' W 095°04'0 0.0
2016-Feb-02 14:33N 29°47' W 095°04'0 0.0
2016-Feb-02 13:33N 29°47' W 095°04'0 0.0
2016-Feb-02 12:33N 29°47' W 095°04'0 0.0
2016-Feb-02 11:33N 29°47' W 095°04'0 0.0
2016-Feb-02 10:33N 29°47' W 095°04'0 0.0
2016-Feb-02 09:32N 29°47' W 095°04'0 0.0
2016-Feb-02 08:33N 29°47' W 095°04'0 0.0
2016-Feb-02 07:33N 29°47' W 095°04'0 0.0
2016-Feb-02 06:33N 29°47' W 095°04'0 0.0
2016-Feb-02 05:33N 29°47' W 095°04'0 0.0
2016-Feb-02 04:33N 29°47' W 095°04'0 0.0
2016-Feb-02 03:33N 29°47' W 095°04'0 0.0
2016-Feb-02 02:33N 29°47' W 095°04'0 0.0
2016-Feb-02 01:33N 29°47' W 095°04'0 0.0
2016-Feb-02 00:33N 29°47' W 095°04'0 0.0
2016-Feb-01 23:32N 29°47' W 095°04'0 0.0
2016-Feb-01 22:33N 29°47' W 095°04'0 0.0
2016-Feb-01 21:33N 29°47' W 095°04'0 0.0
2016-Feb-01 20:33N 29°47' W 095°04'0 0.0
2016-Feb-01 19:33N 29°47' W 095°04'  

Dump ship's entire track history